Time;durP1;ratioP1;P1;durP2;ratioP2;P2;SDS_P1;SDS_P2;PMS_P1;PMS_P2;Temp;Humidity;BMP_temperature;BMP_pressure;BME280_temperature;BME280_humidity;BME280_pressure;Samples;Min_cycle;Max_cycle;Signal;HPM_P1;HPM_P2
2023/12/17 00:00:03;;;;;;;55.92;42.90;;;;;;;8.46;100.00;103738.22;5067997;28;20379;-80
2023/12/17 00:02:28;;;;;;;53.40;43.13;;;;;;;8.46;100.00;103729.47;5054263;28;20029;-80
2023/12/17 00:04:54;;;;;;;55.35;42.63;;;;;;;8.45;100.00;103731.22;5059334;28;20031;-80
2023/12/17 00:07:19;;;;;;;55.22;42.95;;;;;;;8.46;100.00;103732.09;5057257;28;20031;-81
2023/12/17 00:09:45;;;;;;;55.03;43.90;;;;;;;8.47;100.00;103725.94;5050294;28;20415;-80
2023/12/17 00:12:10;;;;;;;57.05;44.65;;;;;;;8.48;100.00;103730.31;5056832;28;20024;-79
2023/12/17 00:14:36;;;;;;;55.83;44.92;;;;;;;8.48;100.00;103720.66;5069495;28;20434;-80
2023/12/17 00:17:01;;;;;;;57.15;44.15;;;;;;;8.49;100.00;103724.16;5068158;28;20034;-79
2023/12/17 00:19:27;;;;;;;52.60;43.13;;;;;;;8.49;100.00;103716.28;5069523;28;20032;-80
2023/12/17 00:21:53;;;;;;;54.85;43.17;;;;;;;8.49;100.00;103721.53;5054406;28;20116;-80
2023/12/17 00:24:18;;;;;;;50.35;41.38;;;;;;;8.51;100.00;103713.63;5062408;28;20024;-80
2023/12/17 00:26:43;;;;;;;50.95;41.72;;;;;;;8.49;100.00;103711.03;5062289;28;20020;-80
2023/12/17 00:29:09;;;;;;;52.70;41.15;;;;;;;8.50;100.00;103712.78;5060196;28;20397;-80
2023/12/17 00:31:34;;;;;;;48.95;40.60;;;;;;;8.49;100.00;103711.03;5049779;28;20452;-79
2023/12/17 00:34:00;;;;;;;50.63;40.72;;;;;;;8.50;100.00;103712.78;5050188;28;20526;-80
2023/12/17 00:36:26;;;;;;;55.75;42.65;;;;;;;8.50;100.00;103701.41;5061626;28;20036;-80
2023/12/17 00:38:51;;;;;;;49.58;40.83;;;;;;;8.50;100.00;103699.66;5056481;28;20028;-79
2023/12/17 00:41:16;;;;;;;55.85;42.33;;;;;;;8.50;100.00;103702.28;5053536;28;20156;-80
2023/12/17 00:43:43;;;;;;;51.92;42.05;;;;;;;8.49;100.00;103692.69;5054289;28;20108;-80
2023/12/17 00:46:08;;;;;;;51.22;41.28;;;;;;;8.51;100.00;103690.88;5048064;28;20061;-80
2023/12/17 00:48:34;;;;;;;55.22;42.63;;;;;;;8.50;100.00;103690.91;5047325;28;20075;-80
2023/12/17 00:50:59;;;;;;;54.63;41.70;;;;;;;8.51;100.00;103692.63;5047450;28;20028;-80
2023/12/17 00:53:24;;;;;;;56.92;42.13;;;;;;;8.51;100.00;103696.13;5063449;28;20517;-80
2023/12/17 00:55:50;;;;;;;51.95;40.28;;;;;;;8.50;100.00;103702.28;5049623;28;20058;-80
2023/12/17 00:58:18;;;;;;;50.00;40.00;;;;;;;8.52;100.00;103700.47;5047854;28;20341;-80
2023/12/17 01:00:43;;;;;;;53.70;41.20;;;;;;;8.52;100.00;103694.38;5048892;28;20071;-80
2023/12/17 01:03:09;;;;;;;56.35;40.65;;;;;;;8.51;100.00;103692.63;5053170;28;20475;-80
2023/12/17 01:05:34;;;;;;;53.88;39.97;;;;;;;8.50;100.00;103681.28;5062455;28;20017;-80
2023/12/17 01:07:59;;;;;;;53.22;41.63;;;;;;;8.50;100.00;103678.66;5058230;28;20178;-80
2023/12/17 01:10:25;;;;;;;53.22;41.17;;;;;;;8.50;100.00;103667.31;5054166;28;20028;-81
2023/12/17 01:12:50;;;;;;;54.72;41.72;;;;;;;8.50;100.00;103660.28;5059444;28;20480;-80
2023/12/17 01:15:15;;;;;;;53.33;41.45;;;;;;;8.48;100.00;103662.94;5063909;28;20109;-80
2023/12/17 01:17:41;;;;;;;55.95;42.55;;;;;;;8.50;100.00;103665.53;5067441;28;20017;-80
2023/12/17 01:20:08;;;;;;;56.40;42.47;;;;;;;8.50;100.00;103670.78;5067193;28;20726;-80
2023/12/17 01:22:33;;;;;;;57.90;43.28;;;;;;;8.51;100.00;103666.41;5060392;28;20439;-80
2023/12/17 01:24:59;;;;;;;52.65;40.85;;;;;;;8.50;100.00;103662.91;5057748;28;20032;-81
2023/12/17 01:27:24;;;;;;;55.55;41.70;;;;;;;8.50;100.00;103665.53;5060587;28;20032;-80
2023/12/17 01:29:50;;;;;;;59.70;41.78;;;;;;;8.50;100.00;103664.69;5068179;28;20486;-80
2023/12/17 01:32:15;;;;;;;54.35;41.85;;;;;;;8.50;100.00;103665.53;5068813;28;20144;-80
2023/12/17 01:34:41;;;;;;;55.10;41.83;;;;;;;8.48;100.00;103668.19;5069411;28;20161;-80
2023/12/17 01:37:06;;;;;;;51.20;40.90;;;;;;;8.50;100.00;103680.41;5055568;28;20394;-80
2023/12/17 01:39:32;;;;;;;55.72;40.95;;;;;;;8.51;100.00;103683.00;5065591;28;20556;-80
2023/12/17 01:42:00;;;;;;;51.90;39.20;;;;;;;8.51;100.00;103688.25;5068320;28;20032;-80
2023/12/17 01:44:25;;;;;;;54.00;39.45;;;;;;;8.51;100.00;103682.16;5065973;28;20032;-80
2023/12/17 01:46:51;;;;;;;49.22;38.13;;;;;;;8.51;100.00;103683.00;5060262;28;20142;-80
2023/12/17 01:49:16;;;;;;;50.33;38.83;;;;;;;8.49;100.00;103692.69;5064054;28;20024;-80
2023/12/17 01:51:42;;;;;;;48.28;37.15;;;;;;;8.50;100.00;103681.28;5059188;28;20032;-80
2023/12/17 01:54:08;;;;;;;48.25;37.55;;;;;;;8.50;100.00;103689.16;5069904;28;20103;-80
2023/12/17 01:56:33;;;;;;;48.42;36.53;;;;;;;8.51;100.00;103690.88;5063228;28;20159;-80
2023/12/17 01:59:00;;;;;;;45.58;38.30;;;;;;;8.52;100.00;103691.75;5053800;28;20071;-80
2023/12/17 02:01:25;;;;;;;45.90;37.08;;;;;;;8.51;100.00;103690.88;5072973;28;20047;-80
2023/12/17 02:03:51;;;;;;;47.40;37.28;;;;;;;8.50;100.00;103690.91;5072878;28;20032;-80
2023/12/17 02:06:16;;;;;;;47.47;37.22;;;;;;;8.50;100.00;103690.91;5070934;28;20056;-80
2023/12/17 02:08:41;;;;;;;45.92;36.17;;;;;;;8.49;100.00;103690.06;5052270;28;20145;-80
2023/12/17 02:11:07;;;;;;;46.40;35.20;;;;;;;8.51;100.00;103703.13;5049822;28;20178;-80
2023/12/17 02:13:32;;;;;;;43.80;35.97;;;;;;;8.51;100.00;103704.00;5058174;28;20031;-80
2023/12/17 02:15:58;;;;;;;45.65;35.45;;;;;;;8.51;100.00;103698.75;5067582;28;20087;-80
2023/12/17 02:18:23;;;;;;;43.92;34.40;;;;;;;8.52;100.00;103690.00;5069701;28;20392;-80
2023/12/17 02:20:50;;;;;;;45.50;35.17;;;;;;;8.52;100.00;103695.22;5069778;28;20161;-80
2023/12/17 02:23:18;;;;;;;44.00;34.15;;;;;;;8.53;100.00;103691.72;5055962;28;20036;-80
2023/12/17 02:25:43;;;;;;;44.50;35.80;;;;;;;8.53;100.00;103690.84;5069061;28;20107;-80
2023/12/17 02:28:09;;;;;;;45.33;35.47;;;;;;;8.53;100.00;103691.72;5055182;28;20136;-80
2023/12/17 02:30:34;;;;;;;46.15;35.85;;;;;;;8.52;100.00;103689.13;5051045;28;20417;-81
2023/12/17 02:33:00;;;;;;;47.25;35.90;;;;;;;8.51;100.00;103680.38;5061078;28;20572;-80
2023/12/17 02:35:25;;;;;;;49.10;37.05;;;;;;;8.51;100.00;103677.75;5050161;28;20044;-80
2023/12/17 02:37:51;;;;;;;44.88;35.83;;;;;;;8.53;100.00;103675.97;5052326;28;20029;-80
2023/12/17 02:40:16;;;;;;;46.20;35.75;;;;;;;8.51;100.00;103684.78;5069539;28;20074;-80
2023/12/17 02:42:42;;;;;;;50.53;37.00;;;;;;;8.53;100.00;103689.09;5060775;28;20040;-80
2023/12/17 02:45:09;;;;;;;50.58;36.78;;;;;;;8.52;100.00;103683.88;5068424;28;20056;-80
2023/12/17 02:47:34;;;;;;;46.13;35.47;;;;;;;8.52;100.00;103691.75;5069358;28;20067;-80
2023/12/17 02:49:59;;;;;;;46.22;36.45;;;;;;;8.50;100.00;103681.28;5059924;28;20104;-80
2023/12/17 02:52:26;;;;;;;47.20;35.25;;;;;;;8.51;100.00;103687.41;5067044;28;20059;-80
2023/12/17 02:54:51;;;;;;;47.30;34.72;;;;;;;8.49;100.00;103684.81;5070854;28;20029;-80
2023/12/17 02:57:17;;;;;;;43.90;33.85;;;;;;;8.47;100.00;103674.34;5058445;28;20185;-81
2023/12/17 02:59:42;;;;;;;44.60;33.50;;;;;;;8.49;100.00;103679.56;5067007;28;20021;-80
2023/12/17 03:02:07;;;;;;;42.05;32.83;;;;;;;8.47;100.00;103679.59;5077090;28;20408;-80
2023/12/17 03:04:33;;;;;;;44.65;32.75;;;;;;;8.48;100.00;103678.69;5081324;28;20042;-79
2023/12/17 03:06:58;;;;;;;41.28;31.88;;;;;;;8.49;100.00;103679.56;5080653;28;20028;-80
2023/12/17 03:09:24;;;;;;;41.10;31.45;;;;;;;8.49;100.00;103671.69;5077617;28;20496;-80
2023/12/17 03:11:49;;;;;;;39.20;29.90;;;;;;;8.48;100.00;103668.19;5070679;28;20357;-79
2023/12/17 03:14:14;;;;;;;37.90;29.80;;;;;;;8.49;100.00;103666.44;5080761;28;20087;-80
2023/12/17 03:16:41;;;;;;;38.30;27.73;;;;;;;8.46;100.00;103671.75;5081626;28;20040;-80
2023/12/17 03:19:06;;;;;;;37.90;28.23;;;;;;;8.47;100.00;103670.84;5081574;28;20462;-79
2023/12/17 03:21:32;;;;;;;35.58;27.40;;;;;;;8.46;100.00;103677.00;5076949;28;20020;-80
2023/12/17 03:24:00;;;;;;;35.95;27.75;;;;;;;8.45;100.00;103670.88;5076108;28;20398;-79
2023/12/17 03:26:26;;;;;;;34.80;27.25;;;;;;;8.44;100.00;103668.28;5073355;28;20020;-79
2023/12/17 03:28:51;;;;;;;32.40;25.52;;;;;;;8.45;100.00;103664.78;5083473;28;20024;-80
2023/12/17 03:31:16;;;;;;;32.13;25.48;;;;;;;8.44;100.00;103656.03;5077691;28;20591;-80
2023/12/17 03:33:43;;;;;;;32.67;25.13;;;;;;;8.45;100.00;103656.91;5067630;28;20024;-79
2023/12/17 03:36:11;;;;;;;29.45;24.40;;;;;;;8.44;100.00;103652.53;5081043;28;20040;-79
2023/12/17 03:38:37;;;;;;;30.50;23.48;;;;;;;8.43;100.00;103650.81;5082074;28;20070;-78
2023/12/17 03:41:02;;;;;;;30.33;24.10;;;;;;;8.43;100.00;103658.69;5075694;28;20020;-79
2023/12/17 03:43:27;;;;;;;26.45;22.30;;;;;;;8.43;100.00;103661.31;5081268;28;20052;-78
2023/12/17 03:45:53;;;;;;;25.90;22.25;;;;;;;8.42;100.00;103656.97;5071325;28;20070;-79
2023/12/17 03:48:18;;;;;;;24.45;21.58;;;;;;;8.41;100.00;103649.97;5057664;28;20020;-81
2023/12/17 03:50:43;;;;;;;26.52;22.02;;;;;;;8.41;100.00;103648.22;5070298;28;20025;-78
2023/12/17 03:53:10;;;;;;;25.13;21.55;;;;;;;8.38;100.00;103645.63;5060664;28;20013;-79
2023/12/17 03:55:38;;;;;;;25.17;20.80;;;;;;;8.38;100.00;103644.78;5055927;28;20033;-79
2023/12/17 03:58:04;;;;;;;24.02;20.55;;;;;;;8.38;100.00;103644.78;5055850;28;20100;-79
2023/12/17 04:00:30;;;;;;;26.27;20.60;;;;;;;8.38;100.00;103639.53;5055255;28;20055;-79
2023/12/17 04:02:55;;;;;;;25.80;20.88;;;;;;;8.36;100.00;103647.44;5061972;28;20021;-80
2023/12/17 04:05:21;;;;;;;22.77;20.15;;;;;;;8.37;100.00;103638.66;5070256;28;20021;-80
2023/12/17 04:07:46;;;;;;;25.58;20.65;;;;;;;8.38;100.00;103640.38;5056648;28;20029;-80
2023/12/17 04:10:12;;;;;;;25.42;19.88;;;;;;;8.35;100.00;103626.47;5055897;28;20024;-80
2023/12/17 04:12:37;;;;;;;22.13;19.70;;;;;;;8.35;100.00;103626.47;5060179;28;20058;-79
2023/12/17 04:15:02;;;;;;;25.70;20.33;;;;;;;8.33;100.00;103630.84;5076859;28;20031;-79
2023/12/17 04:17:29;;;;;;;25.92;20.50;;;;;;;8.32;100.00;103627.38;5075110;28;20035;-79
2023/12/17 04:19:54;;;;;;;26.88;19.92;;;;;;;8.32;100.00;103624.75;5070604;28;20028;-78
2023/12/17 04:22:20;;;;;;;25.02;19.25;;;;;;;8.30;100.00;103626.53;5074955;28;20075;-78
2023/12/17 04:24:45;;;;;;;24.58;19.13;;;;;;;8.32;100.00;103630.00;5080314;28;20093;-79
2023/12/17 04:27:10;;;;;;;26.17;20.80;;;;;;;8.30;100.00;103621.28;5084551;28;20028;-79
2023/12/17 04:29:36;;;;;;;27.10;20.42;;;;;;;8.30;100.00;103623.03;5072035;28;20479;-79
2023/12/17 04:32:02;;;;;;;26.90;21.45;;;;;;;8.29;100.00;103616.94;5084968;28;20131;-81
2023/12/17 04:34:27;;;;;;;29.02;21.65;;;;;;;8.27;100.00;103610.00;5079589;28;20032;-79
2023/12/17 04:36:53;;;;;;;26.25;21.40;;;;;;;8.27;100.00;103612.63;5081750;28;20122;-79
2023/12/17 04:39:20;;;;;;;26.80;21.80;;;;;;;8.25;100.00;103615.28;5073427;28;20072;-79
2023/12/17 04:41:45;;;;;;;26.80;21.70;;;;;;;8.24;100.00;103615.31;5072868;28;20499;-79
2023/12/17 04:44:10;;;;;;;29.85;21.48;;;;;;;8.24;100.00;103620.53;5069543;28;20048;-79
2023/12/17 04:46:37;;;;;;;27.92;21.25;;;;;;;8.22;100.00;103620.59;5063166;28;20404;-79
2023/12/17 04:49:03;;;;;;;27.90;21.75;;;;;;;8.20;100.00;103618.88;5053934;28;20055;-79
2023/12/17 04:51:28;;;;;;;25.60;21.55;;;;;;;8.20;100.00;103618.88;5058509;28;20542;-79
2023/12/17 04:53:53;;;;;;;28.17;22.00;;;;;;;8.18;100.00;103616.28;5064469;28;20026;-79
2023/12/17 04:56:21;;;;;;;27.45;22.02;;;;;;;8.17;100.00;103615.44;5066340;28;20066;-79
2023/12/17 04:58:46;;;;;;;26.77;21.35;;;;;;;8.17;100.00;103623.28;5069244;28;20052;-80
2023/12/17 05:01:12;;;;;;;26.60;20.80;;;;;;;8.15;100.00;103622.47;5065609;28;20540;-79
2023/12/17 05:03:38;;;;;;;27.73;22.02;;;;;;;8.13;100.00;103619.00;5067597;28;20034;-79
2023/12/17 05:06:04;;;;;;;27.10;21.73;;;;;;;8.13;100.00;103619.00;5067945;28;20067;-79
2023/12/17 05:08:29;;;;;;;28.70;22.13;;;;;;;8.13;100.00;103612.91;5052575;28;20036;-78
2023/12/17 05:10:55;;;;;;;25.73;21.10;;;;;;;8.13;100.00;103610.28;5056818;28;20025;-79
2023/12/17 05:13:20;;;;;;;28.95;21.92;;;;;;;8.11;100.00;103610.31;5048592;28;20029;-79
2023/12/17 05:15:46;;;;;;;27.67;22.48;;;;;;;8.11;100.00;103612.06;5050013;28;20031;-79
2023/12/17 05:18:11;;;;;;;27.55;21.65;;;;;;;8.11;100.00;103609.44;5049223;28;20025;-79
2023/12/17 05:20:37;;;;;;;25.88;21.67;;;;;;;8.09;100.00;103611.22;5048663;28;20040;-79
2023/12/17 05:23:02;;;;;;;28.85;23.08;;;;;;;8.09;100.00;103612.09;5047954;28;20066;-78
2023/12/17 05:25:28;;;;;;;26.58;21.45;;;;;;;8.08;100.00;103610.38;5063033;28;20029;-79
2023/12/17 05:27:53;;;;;;;32.05;23.27;;;;;;;8.08;100.00;103609.50;5071441;28;20085;-79
2023/12/17 05:30:19;;;;;;;27.98;22.58;;;;;;;8.07;100.00;103611.25;5064289;28;20029;-79
2023/12/17 05:32:44;;;;;;;31.50;23.83;;;;;;;8.09;100.00;103608.59;5075316;28;20043;-79
2023/12/17 05:35:10;;;;;;;29.95;23.08;;;;;;;8.09;100.00;103612.09;5068209;28;20538;-79
2023/12/17 05:37:35;;;;;;;30.63;23.63;;;;;;;8.08;100.00;103610.38;5071967;28;20060;-79
2023/12/17 05:40:01;;;;;;;32.83;24.13;;;;;;;8.08;100.00;103613.00;5073975;28;20028;-80
2023/12/17 05:42:26;;;;;;;32.47;24.58;;;;;;;8.08;100.00;103614.75;5072522;28;20176;-79
2023/12/17 05:44:52;;;;;;;28.17;23.17;;;;;;;8.07;100.00;103619.13;5068780;28;20078;-79
2023/12/17 05:47:17;;;;;;;27.80;23.25;;;;;;;8.06;100.00;103611.28;5064496;28;20024;-79
2023/12/17 05:49:42;;;;;;;30.00;23.05;;;;;;;8.06;100.00;103609.53;5053410;28;20481;-80
2023/12/17 05:52:08;;;;;;;26.98;22.15;;;;;;;8.05;100.00;103613.06;5064218;28;20100;-80
2023/12/17 05:54:34;;;;;;;24.63;21.10;;;;;;;8.03;100.00;103609.59;5056971;28;20024;-80
2023/12/17 05:57:00;;;;;;;25.90;21.17;;;;;;;8.01;100.00;103603.50;5074113;28;20054;-80
2023/12/17 05:59:25;;;;;;;23.00;19.60;;;;;;;8.00;100.00;103596.50;5073950;28;20021;-80
2023/12/17 06:01:51;;;;;;;21.30;18.83;;;;;;;7.99;100.00;103591.31;5061203;28;20097;-80
2023/12/17 06:04:16;;;;;;;20.17;17.85;;;;;;;7.96;100.00;103602.72;5070686;28;20036;-80
2023/12/17 06:06:42;;;;;;;18.80;16.70;;;;;;;7.94;100.00;103594.00;5061107;28;20504;-80
2023/12/17 06:09:07;;;;;;;18.35;16.45;;;;;;;7.92;100.00;103593.19;5074603;28;20040;-80
2023/12/17 06:11:33;;;;;;;18.30;16.08;;;;;;;7.92;100.00;103594.94;5054731;28;20033;-80
2023/12/17 06:13:58;;;;;;;17.85;15.07;;;;;;;7.90;100.00;103600.22;5073322;28;20496;-80
2023/12/17 06:16:24;;;;;;;18.83;15.38;;;;;;;7.90;100.00;103596.72;5074452;28;20028;-80
2023/12/17 06:18:50;;;;;;;16.95;14.90;;;;;;;7.89;100.00;103598.47;5074469;28;20032;-80
2023/12/17 06:21:25;;;;;;;16.35;13.60;;;;;;;7.89;100.00;103608.97;5074742;28;20116;-79
2023/12/17 06:23:59;;;;;;;15.70;14.00;;;;;;;7.88;100.00;103607.25;5067613;28;20025;-80
2023/12/17 06:26:25;;;;;;;15.95;13.95;;;;;;;7.87;100.00;103608.13;5064334;28;20029;-80
2023/12/17 06:28:51;;;;;;;16.70;14.90;;;;;;;7.88;100.00;103612.47;5055807;28;20032;-80
2023/12/17 06:31:16;;;;;;;16.55;14.75;;;;;;;7.88;100.00;103609.84;5067218;28;20091;-81
2023/12/17 06:33:42;;;;;;;17.48;14.55;;;;;;;7.89;100.00;103608.97;5072098;28;20119;-78
2023/12/17 06:36:08;;;;;;;16.27;14.65;;;;;;;7.88;100.00;103607.25;5054619;28;20047;-80
2023/12/17 06:38:33;;;;;;;18.35;14.13;;;;;;;7.90;100.00;103612.44;5061715;28;20024;-81
2023/12/17 06:40:59;;;;;;;15.73;14.02;;;;;;;7.89;100.00;103614.22;5070067;28;20021;-80
2023/12/17 06:43:24;;;;;;;17.13;15.30;;;;;;;7.88;100.00;103612.47;5059011;28;20029;-80
2023/12/17 06:45:50;;;;;;;16.95;14.77;;;;;;;7.89;100.00;103618.59;5053498;28;20471;-81
2023/12/17 06:48:15;;;;;;;18.33;15.68;;;;;;;7.88;100.00;103617.72;5059768;28;20116;-80
2023/12/17 06:50:41;;;;;;;17.63;15.68;;;;;;;7.87;100.00;103616.00;5049825;28;20039;-81
2023/12/17 06:53:06;;;;;;;18.98;16.23;;;;;;;7.87;100.00;103610.75;5058935;28;20100;-80
2023/12/17 06:55:31;;;;;;;18.88;16.20;;;;;;;7.87;100.00;103610.75;5060713;28;20043;-80
2023/12/17 06:58:00;;;;;;;22.00;18.88;;;;;;;7.86;100.00;103609.03;5069705;28;20546;-79
2023/12/17 07:00:25;;;;;;;21.58;19.08;;;;;;;7.85;100.00;103604.66;5068284;28;20024;-80
2023/12/17 07:02:51;;;;;;;21.95;18.98;;;;;;;7.82;100.00;103602.13;5069137;28;20427;-80
2023/12/17 07:05:16;;;;;;;23.50;19.95;;;;;;;7.81;100.00;103601.25;5058792;28;20508;-77
2023/12/17 07:07:47;;;;;;;22.55;19.35;;;;;;;7.80;100.00;103598.66;5051650;28;20116;-76
2023/12/17 07:10:12;;;;;;;22.02;18.08;;;;;;;7.76;100.00;103604.84;5061653;28;20431;-76
2023/12/17 07:12:38;;;;;;;20.92;18.25;;;;;;;7.73;100.00;103592.66;5061577;28;20029;-76
2023/12/17 07:15:03;;;;;;;19.35;17.35;;;;;;;7.74;100.00;103599.63;5052920;28;20028;-76
2023/12/17 07:17:30;;;;;;;20.50;16.58;;;;;;;7.72;100.00;103605.78;5066953;28;20484;-77
2023/12/17 07:19:55;;;;;;;18.20;16.00;;;;;;;7.68;100.00;103605.00;5070496;28;20530;-77
2023/12/17 07:22:22;;;;;;;17.65;15.77;;;;;;;7.67;100.00;103607.63;5061417;28;20025;-77
2023/12/17 07:24:48;;;;;;;19.25;16.27;;;;;;;7.67;100.00;103610.25;5055987;28;20500;-77
2023/12/17 07:27:14;;;;;;;18.40;15.25;;;;;;;7.66;100.00;103608.53;5064153;28;20384;-77
2023/12/17 07:29:40;;;;;;;19.15;16.58;;;;;;;7.66;100.00;103616.38;5059063;28;20031;-77
2023/12/17 07:32:05;;;;;;;22.00;17.27;;;;;;;7.66;100.00;103605.91;5063261;28;20052;-76
2023/12/17 07:34:30;;;;;;;19.35;16.65;;;;;;;7.66;100.00;103605.91;5060818;28;20020;-77
2023/12/17 07:36:56;;;;;;;20.38;17.00;;;;;;;7.65;100.00;103610.28;5056257;28;20449;-77
2023/12/17 07:39:21;;;;;;;22.27;17.98;;;;;;;7.66;100.00;103605.91;5058332;28;20111;-78
2023/12/17 07:41:47;;;;;;;20.83;17.80;;;;;;;7.67;100.00;103618.13;5058929;28;20040;-77
2023/12/17 07:44:12;;;;;;;21.30;17.67;;;;;;;7.64;100.00;103623.41;5065033;28;20025;-77
2023/12/17 07:46:38;;;;;;;21.20;17.58;;;;;;;7.63;100.00;103619.06;5065730;28;20032;-81
2023/12/17 07:49:03;;;;;;;19.85;16.98;;;;;;;7.65;100.00;103619.91;5061311;28;20466;-80
2023/12/17 07:51:28;;;;;;;21.95;17.35;;;;;;;7.64;100.00;103624.28;5058057;28;20103;-80
2023/12/17 07:53:54;;;;;;;19.92;16.52;;;;;;;7.62;100.00;103619.97;5069519;28;20029;-81
2023/12/17 07:56:19;;;;;;;20.38;16.55;;;;;;;7.61;100.00;103628.72;5066108;28;20111;-81
2023/12/17 07:58:45;;;;;;;18.20;16.25;;;;;;;7.59;100.00;103619.97;5067300;28;20023;-81
2023/12/17 08:01:10;;;;;;;16.67;14.73;;;;;;;7.57;100.00;103627.88;5060749;28;20393;-81
2023/12/17 08:03:35;;;;;;;17.17;14.68;;;;;;;7.54;100.00;103631.41;5050973;28;20112;-81
2023/12/17 08:06:01;;;;;;;16.20;14.50;;;;;;;7.54;100.00;103641.88;5068425;28;20031;-79
2023/12/17 08:08:27;;;;;;;16.80;14.65;;;;;;;7.52;100.00;103641.03;5063245;28;20108;-81
2023/12/17 08:10:53;;;;;;;16.75;14.40;;;;;;;7.49;100.00;103640.22;5062791;28;20035;-80
2023/12/17 08:13:18;;;;;;;15.55;13.95;;;;;;;7.47;100.00;103637.63;5053857;28;20107;-81
2023/12/17 08:15:44;;;;;;;15.25;13.70;;;;;;;7.45;100.00;103633.31;5058266;28;20033;-81
2023/12/17 08:18:09;;;;;;;15.73;14.13;;;;;;;7.42;100.00;103636.84;5050279;28;20025;-82
2023/12/17 08:20:35;;;;;;;16.35;14.40;;;;;;;7.38;100.00;103643.03;5065868;28;20228;-81
2023/12/17 08:23:00;;;;;;;16.20;14.50;;;;;;;7.38;100.00;103635.19;5053552;28;20028;-80
2023/12/17 08:25:26;;;;;;;16.73;15.13;;;;;;;7.31;100.00;103628.31;5067799;28;20381;-80
2023/12/17 08:27:51;;;;;;;16.75;14.95;;;;;;;7.30;100.00;103629.19;5067218;28;20122;-80
2023/12/17 08:30:17;;;;;;;16.55;14.77;;;;;;;7.29;100.00;103631.84;5064026;28;20075;-81
2023/12/17 08:32:44;;;;;;;17.83;15.73;;;;;;;7.28;100.00;103635.34;5055943;28;20052;-80
2023/12/17 08:35:10;;;;;;;18.40;15.82;;;;;;;7.27;100.00;103638.84;5059845;28;20091;-80
2023/12/17 08:37:36;;;;;;;16.25;14.55;;;;;;;7.25;100.00;103640.63;5068187;28;20020;-77
2023/12/17 08:40:03;;;;;;;18.25;16.33;;;;;;;7.24;100.00;103650.25;5067824;28;20476;-78
2023/12/17 08:42:28;;;;;;;17.83;15.93;;;;;;;7.25;100.00;103646.75;5066650;28;20502;-78
2023/12/17 08:44:53;;;;;;;18.58;16.55;;;;;;;7.24;100.00;103650.25;5063436;28;20036;-78
2023/12/17 08:47:19;;;;;;;19.02;16.77;;;;;;;7.22;100.00;103654.63;5066808;28;20538;-78
2023/12/17 08:49:44;;;;;;;20.77;17.75;;;;;;;7.19;100.00;103654.66;5068581;28;20052;-78
2023/12/17 08:52:09;;;;;;;19.27;17.17;;;;;;;7.18;100.00;103660.78;5068308;28;20017;-79
2023/12/17 08:54:35;;;;;;;18.60;16.60;;;;;;;7.12;100.00;103650.41;5069080;28;20310;-78
2023/12/17 08:57:00;;;;;;;17.48;15.68;;;;;;;7.10;100.00;103650.44;5066920;28;20515;-78
2023/12/17 08:59:26;;;;;;;18.23;16.13;;;;;;;7.09;100.00;103645.22;5066322;28;20025;-78
2023/12/17 09:01:51;;;;;;;17.15;15.40;;;;;;;7.09;100.00;103650.44;5068999;28;20636;-78
2023/12/17 09:04:19;;;;;;;18.23;16.10;;;;;;;7.09;100.00;103651.31;5068493;28;20499;-81
2023/12/17 09:06:46;;;;;;;18.92;16.90;;;;;;;7.10;100.00;103652.19;5067365;28;20021;-80
2023/12/17 09:09:13;;;;;;;18.38;16.45;;;;;;;7.11;100.00;103653.91;5067665;28;20024;-81
2023/12/17 09:11:38;;;;;;;19.27;17.13;;;;;;;7.10;100.00;103649.56;5068793;28;20491;-81
2023/12/17 09:14:05;;;;;;;19.98;16.95;;;;;;;7.09;100.00;103648.69;5067995;28;20016;-81
2023/12/17 09:16:30;;;;;;;22.65;17.73;;;;;;;7.05;100.00;103643.53;5069104;28;20058;-81
2023/12/17 09:18:56;;;;;;;23.38;18.60;;;;;;;7.04;100.00;103652.28;5067699;28;20037;-81
2023/12/17 09:21:21;;;;;;;23.77;19.13;;;;;;;6.98;100.00;103657.59;5065385;28;20407;-80
2023/12/17 09:23:47;;;;;;;24.15;19.08;;;;;;;6.96;100.00;103655.00;5068364;28;20024;-80
2023/12/17 09:26:13;;;;;;;24.73;18.88;;;;;;;6.95;100.00;103647.16;5067908;28;20029;-80
2023/12/17 09:28:38;;;;;;;23.05;18.90;;;;;;;6.93;100.00;103659.41;5066012;28;20031;-80
2023/12/17 09:31:08;;;;;;;26.30;20.45;;;;;;;6.93;100.00;103648.94;5067488;28;20032;-80
2023/12/17 09:33:34;;;;;;;25.63;19.80;;;;;;;6.93;100.00;103652.44;5066439;28;20028;-81
2023/12/17 09:36:00;;;;;;;29.15;21.25;;;;;;;6.86;100.00;103658.63;5066627;28;20067;-80
2023/12/17 09:38:25;;;;;;;29.25;21.02;;;;;;;6.84;100.00;103658.66;5066423;28;20063;-81
2023/12/17 09:40:51;;;;;;;28.73;21.45;;;;;;;6.83;100.00;103661.28;5066954;28;20467;-81
2023/12/17 09:43:16;;;;;;;29.25;22.08;;;;;;;6.80;100.00;103664.78;5065865;28;20135;-81
2023/12/17 09:45:44;;;;;;;30.73;22.85;;;;;;;6.78;100.00;103660.47;5068422;28;20417;-80
2023/12/17 09:48:10;;;;;;;32.03;23.65;;;;;;;6.78;100.00;103663.06;5067910;28;20112;-81
2023/12/17 09:50:35;;;;;;;31.95;23.08;;;;;;;6.77;100.00;103663.97;5065648;28;20171;-80
2023/12/17 09:53:00;;;;;;;29.58;22.65;;;;;;;6.79;100.00;103659.56;5055168;28;20033;-80
2023/12/17 09:55:26;;;;;;;30.98;23.55;;;;;;;6.77;100.00;103658.72;5060376;28;20036;-81
2023/12/17 09:57:51;;;;;;;28.50;22.83;;;;;;;6.74;100.00;103657.03;5059679;28;20357;-80
2023/12/17 10:00:17;;;;;;;32.05;23.52;;;;;;;6.76;100.00;103664.84;5057671;28;20429;-80
2023/12/17 10:02:43;;;;;;;31.00;22.73;;;;;;;6.71;100.00;103657.06;5058638;28;20029;-81
2023/12/17 10:05:08;;;;;;;29.65;23.45;;;;;;;6.73;100.00;103662.28;5063463;28;20031;-81
2023/12/17 10:07:34;;;;;;;36.65;24.42;;;;;;;6.72;100.00;103661.41;5048823;28;20485;-80
2023/12/17 10:10:00;;;;;;;33.92;24.13;;;;;;;6.71;100.00;103659.69;5052251;28;20044;-81
2023/12/17 10:12:27;;;;;;;33.42;25.40;;;;;;;6.69;100.00;103660.59;5072106;28;20554;-82
2023/12/17 10:14:53;;;;;;;34.25;26.17;;;;;;;6.69;100.00;103661.44;5070435;28;20025;-82
2023/12/17 10:17:19;;;;;;;35.60;25.58;;;;;;;6.71;100.00;103658.81;5049983;28;20045;-82
2023/12/17 10:19:52;;;;;;;36.35;25.83;;;;;;;6.73;100.00;103657.03;5054553;28;20033;-82
2023/12/17 10:22:19;;;;;;;39.25;26.60;;;;;;;6.71;100.00;103669.28;5058643;28;20050;-82
2023/12/17 10:24:45;;;;;;;37.33;26.27;;;;;;;6.71;100.00;103670.16;5062549;28;20028;-82
2023/12/17 10:27:16;;;;;;;36.03;26.95;;;;;;;6.75;100.00;103663.97;5064249;28;20628;-82
2023/12/17 10:29:44;;;;;;;39.67;28.50;;;;;;;6.74;100.00;103661.38;5061702;28;20062;-81
2023/12/17 10:32:10;;;;;;;43.92;29.10;;;;;;;6.74;100.00;103659.63;5053910;28;20040;-82
2023/12/17 10:34:38;;;;;;;41.30;29.08;;;;;;;6.72;100.00;103653.56;5063090;28;20126;-81
2023/12/17 10:37:06;;;;;;;39.70;29.35;;;;;;;6.78;100.00;103660.47;5060994;28;20063;-81
2023/12/17 10:39:33;;;;;;;44.15;29.70;;;;;;;6.83;100.00;103653.44;5063765;28;20027;-81
2023/12/17 10:42:00;;;;;;;45.20;29.88;;;;;;;6.84;100.00;103634.25;5067334;28;20470;-81
2023/12/17 10:44:28;;;;;;;45.55;29.80;;;;;;;6.91;100.00;103643.72;5063511;28;20123;-81
2023/12/17 10:46:54;;;;;;;43.63;30.20;;;;;;;6.96;100.00;103639.28;5059338;28;20024;-82
2023/12/17 10:49:21;;;;;;;41.58;30.27;;;;;;;7.02;100.00;103627.88;5058195;28;20029;-82
2023/12/17 10:51:48;;;;;;;43.28;27.73;;;;;;;7.08;100.00;103627.78;5065832;28;20040;-82
2023/12/17 10:54:14;;;;;;;39.42;27.95;;;;;;;7.16;100.00;103623.28;5059563;28;20054;-81
2023/12/17 10:56:47;;;;;;;38.95;27.55;;;;;;;7.26;100.00;103624.91;5055164;28;20107;-82
2023/12/17 10:59:14;;;;;;;36.00;25.15;;;;;;;7.27;100.00;103626.63;5066653;28;20082;-81
2023/12/17 11:01:42;;;;;;;36.35;25.00;;;;;;;7.38;100.00;103622.06;5059731;28;20499;-81